This is the latest recevied weather packets stored in our database for station/object 9W2CHF-3. If no packets are shown the sender has not sent any weather packets the latest 10 day(s).
| Time | Temp. | Humidity | Pressure | Rain* | Wind** | Luminosity | Snow |
|---|---|---|---|---|---|---|---|
| 1777781218 | 40° C | 51% | 1011.1 hPa | - | - | - | - |
| 1777780018 | 38.89° C | 54% | 1011 hPa | - | - | - | - |
| 1777778817 | 38.89° C | 55% | 1011.3 hPa | - | - | - | - |
| 1777777617 | 37.78° C | 56% | 1011.5 hPa | - | - | - | - |
| 1777776417 | 37.22° C | 62% | 1011.5 hPa | - | - | - | - |
| 1777775216 | 37.22° C | 60% | 1011.3 hPa | - | - | - | - |
| 1777774016 | 36.11° C | 65% | 1011.3 hPa | - | - | - | - |
| 1777772816 | 35° C | 79% | 1011.1 hPa | - | - | - | - |
| 1777771616 | 32.78° C | 94% | 1011 hPa | - | - | - | - |
| 1777770416 | 32.22° C | 94% | 1010.9 hPa | - | - | - | - |
| 1777769218 | 31.11° C | 100% | 1010.5 hPa | - | - | - | - |
| 1777768016 | 33.33° C | 90% | 1010.1 hPa | - | - | - | - |
| 1777766816 | 32.78° C | 90% | 1009.7 hPa | - | - | - | - |
| 1777765615 | 30° C | 100% | 1009.5 hPa | - | - | - | - |
| 1777764415 | 28.33° C | 100% | 1009.3 hPa | - | - | - | - |
| 1777763217 | 28.33° C | 100% | 1009.2 hPa | - | - | - | - |
| 1777762015 | 28.33° C | 100% | 1009.2 hPa | - | - | - | - |
| 1777760814 | 28.33° C | 100% | 1009.1 hPa | - | - | - | - |
| 1777759614 | 28.33° C | 100% | 1009 hPa | - | - | - | - |
| 1777758414 | 28.89° C | 100% | 1009 hPa | - | - | - | - |
| 1777757214 | 28.33° C | 100% | 1009 hPa | - | - | - | - |
| 1777756014 | 28.89° C | 100% | 1009.2 hPa | - | - | - | - |
| 1777754814 | 28.33° C | 100% | 1009.2 hPa | - | - | - | - |
| 1777753614 | 29.44° C | 100% | 1009.1 hPa | - | - | - | - |
| 1777752414 | 28.89° C | 100% | 1008.9 hPa | - | - | - | - |
* Rain since midnight (hover to see other rain measurements)
** Current wind speed in m/s (hover to see current wind gust speed)